Alida, Minnesota
Current Conditions -  °F | °C
As of 1:12 AM on Sunday 23 Nov 2014 (Local Time) from KBJI Reporting Station
Haze Haze  
Wind Chill: 24°   Ceiling: 300
Heat Index: 32°   Visibility: 1.7mi
Dew Point: 32°   Wind: 9mph
Humidity: 99%   Direction: 160°SSE
Pressure: 29.39"   Gusts: NA
Location:  47.4609°N, 95.2384°W
Report Text: KBJI 230712Z AUTO 16008KT 1 3/4SM BR OVC003 00/00 A2939 RMK AO2 T00001002
Loading
Personal Weather Stations






























Interactive Weather Map New forecast layout! Learn more

10-Day Weather Forecast

Advertisements
Track Severe Weather on mobile